createdAt,value
2018-05-29T00:00:32.551Z,941.77
2018-05-29T00:01:32.537Z,941.79
2018-05-29T00:02:32.525Z,941.78
2018-05-29T00:03:32.522Z,941.79
2018-05-29T00:04:32.513Z,941.78
2018-05-29T00:05:32.488Z,941.78
2018-05-29T00:06:32.494Z,941.78
2018-05-29T00:08:18.427Z,941.78
2018-05-29T00:08:32.511Z,941.78
2018-05-29T00:09:32.457Z,941.74
2018-05-29T00:10:32.453Z,941.75
2018-05-29T00:11:32.441Z,941.78
2018-05-29T00:12:32.419Z,941.76
2018-05-29T00:13:32.418Z,941.78
2018-05-29T00:14:32.396Z,941.73
2018-05-29T00:15:32.402Z,941.70
2018-05-29T00:16:32.385Z,941.74
2018-05-29T00:17:32.372Z,941.70
2018-05-29T00:18:32.360Z,941.68
2018-05-29T00:19:32.359Z,941.70
2018-05-29T00:20:32.354Z,941.71
2018-05-29T00:21:32.340Z,941.70
2018-05-29T00:22:32.336Z,941.70
2018-05-29T00:23:32.320Z,941.67
2018-05-29T00:24:32.303Z,941.68
2018-05-29T00:25:32.302Z,941.67
2018-05-29T00:26:32.279Z,941.71
2018-05-29T00:27:32.281Z,941.73
2018-05-29T00:28:32.270Z,941.77
2018-05-29T00:29:32.249Z,941.77
2018-05-29T00:30:32.256Z,941.78
2018-05-29T00:31:32.245Z,941.79
2018-05-29T00:32:32.197Z,941.78
2018-05-29T00:33:32.192Z,941.76
2018-05-29T00:34:32.176Z,941.83
2018-05-29T00:35:32.164Z,941.77
2018-05-29T00:36:32.155Z,941.83
2018-05-29T00:37:32.149Z,941.80
2018-05-29T00:38:32.133Z,941.79
2018-05-29T00:39:32.122Z,941.79
2018-05-29T00:40:32.113Z,941.80
2018-05-29T00:41:32.103Z,941.80
2018-05-29T00:42:32.091Z,941.81
2018-05-29T00:43:32.081Z,941.84
2018-05-29T00:44:32.071Z,941.87
2018-05-29T00:45:32.063Z,941.91
2018-05-29T00:46:32.051Z,941.89
2018-05-29T00:47:32.065Z,941.93
2018-05-29T00:48:32.059Z,941.88
2018-05-29T00:49:32.052Z,941.90
2018-05-29T00:50:32.030Z,941.89
2018-05-29T00:51:32.025Z,941.91
2018-05-29T00:52:31.991Z,941.95
2018-05-29T00:53:31.980Z,941.92
2018-05-29T00:54:31.968Z,941.92
2018-05-29T00:55:31.979Z,941.91
2018-05-29T00:56:31.956Z,941.93
2018-05-29T00:57:31.965Z,941.94
2018-05-29T00:58:31.946Z,941.91
2018-05-29T00:59:31.917Z,941.91
2018-05-29T01:00:31.905Z,941.95
2018-05-29T01:01:31.896Z,941.95
2018-05-29T01:02:31.884Z,941.92
2018-05-29T01:03:31.875Z,942.00
2018-05-29T01:04:31.866Z,941.94
2018-05-29T01:05:31.854Z,941.98
2018-05-29T01:06:31.854Z,941.97
2018-05-29T01:07:31.856Z,941.97
2018-05-29T01:08:31.824Z,941.98
2018-05-29T01:09:31.817Z,941.93
2018-05-29T01:10:31.811Z,941.96
2018-05-29T01:11:31.803Z,941.97
2018-05-29T01:12:31.781Z,941.97
2018-05-29T01:13:31.770Z,942.00
2018-05-29T01:14:31.760Z,942.01
2018-05-29T01:15:31.781Z,942.00
2018-05-29T01:16:31.754Z,942.02
2018-05-29T01:17:31.748Z,942.03
2018-05-29T01:18:31.740Z,942.02
2018-05-29T01:19:31.737Z,942.00
2018-05-29T01:20:31.724Z,942.03
2018-05-29T01:21:31.708Z,942.05
2018-05-29T01:22:31.712Z,942.02
2018-05-29T01:23:31.685Z,941.99
2018-05-29T01:24:31.687Z,941.99
2018-05-29T01:25:31.661Z,942.03
2018-05-29T01:26:31.635Z,942.03
2018-05-29T01:27:31.626Z,941.99
2018-05-29T01:28:31.616Z,942.02
2018-05-29T01:29:31.606Z,942.00
2018-05-29T01:30:31.592Z,942.00
2018-05-29T01:31:31.583Z,941.97
2018-05-29T01:32:31.575Z,941.95
2018-05-29T01:33:31.563Z,941.93
2018-05-29T01:34:31.550Z,941.96
2018-05-29T01:35:31.542Z,941.93
2018-05-29T01:36:31.536Z,941.93
2018-05-29T01:37:31.520Z,941.98
2018-05-29T01:38:31.510Z,941.93
2018-05-29T01:39:31.501Z,941.98
2018-05-29T01:40:31.488Z,941.95
2018-05-29T01:41:31.480Z,941.98
2018-05-29T01:42:31.467Z,941.97
2018-05-29T01:43:31.457Z,942.00
2018-05-29T01:44:31.446Z,942.00
2018-05-29T01:45:31.439Z,941.96
2018-05-29T01:46:31.424Z,941.92
2018-05-29T01:47:31.416Z,941.95
2018-05-29T01:48:31.406Z,942.00
2018-05-29T01:49:31.394Z,941.98
2018-05-29T01:50:31.388Z,941.99
2018-05-29T01:51:31.374Z,941.99
2018-05-29T01:52:31.362Z,941.98
2018-05-29T01:53:31.352Z,941.95
2018-05-29T01:54:31.341Z,941.94
2018-05-29T01:55:31.331Z,941.93
2018-05-29T01:56:31.324Z,941.94
2018-05-29T01:57:31.310Z,941.95
2018-05-29T01:58:31.299Z,941.93
2018-05-29T01:59:31.288Z,941.92
2018-05-29T02:00:31.277Z,941.95
2018-05-29T02:01:31.267Z,941.96
2018-05-29T02:02:31.258Z,941.95
2018-05-29T02:03:31.245Z,941.98
2018-05-29T02:04:31.338Z,941.97
2018-05-29T02:05:31.225Z,941.95
2018-05-29T02:06:31.216Z,941.95
2018-05-29T02:07:31.207Z,941.95
2018-05-29T02:08:31.194Z,941.97
2018-05-29T02:09:31.194Z,941.98
2018-05-29T02:10:31.172Z,941.94
2018-05-29T02:11:31.168Z,941.96
2018-05-29T02:12:31.157Z,941.94
2018-05-29T02:13:31.142Z,941.91
2018-05-29T02:14:31.132Z,941.93
2018-05-29T02:15:31.120Z,941.91
2018-05-29T02:16:31.111Z,941.88
2018-05-29T02:17:31.099Z,941.90
2018-05-29T02:18:31.085Z,941.92
2018-05-29T02:19:31.074Z,941.91
2018-05-29T02:20:31.065Z,941.91
2018-05-29T02:21:31.060Z,941.89
2018-05-29T02:22:31.042Z,941.91
2018-05-29T02:23:31.041Z,941.91
2018-05-29T02:24:31.027Z,941.93
2018-05-29T02:25:31.015Z,941.89
2018-05-29T02:26:31.012Z,941.95
2018-05-29T02:27:30.994Z,941.93
2018-05-29T02:28:30.992Z,941.93
2018-05-29T02:29:30.975Z,941.90
2018-05-29T02:30:30.958Z,941.88
2018-05-29T02:31:30.947Z,941.89
2018-05-29T02:32:30.938Z,941.86
2018-05-29T02:33:30.927Z,941.89
2018-05-29T02:34:30.916Z,941.86
2018-05-29T02:35:30.907Z,941.88
2018-05-29T02:36:30.895Z,941.87
2018-05-29T02:37:30.887Z,941.86
2018-05-29T02:38:30.873Z,941.86
2018-05-29T02:39:30.863Z,941.80
2018-05-29T02:40:30.855Z,941.88
2018-05-29T02:41:30.841Z,941.83
2018-05-29T02:42:30.834Z,941.83
2018-05-29T02:43:30.821Z,941.79
2018-05-29T02:44:30.810Z,941.85
2018-05-29T02:45:30.800Z,941.74
2018-05-29T02:46:30.798Z,941.73
2018-05-29T02:47:30.786Z,941.73
2018-05-29T02:48:30.770Z,941.72
2018-05-29T02:49:30.757Z,941.73
2018-05-29T02:50:30.744Z,941.75
2018-05-29T02:51:30.736Z,941.76
2018-05-29T02:52:30.730Z,941.75
2018-05-29T02:53:30.719Z,941.71
2018-05-29T02:54:30.706Z,941.74
2018-05-29T02:55:30.698Z,941.73
2018-05-29T02:56:30.682Z,941.77
2018-05-29T02:57:30.676Z,941.75
2018-05-29T02:58:30.660Z,941.74
2018-05-29T02:59:30.655Z,941.74
2018-05-29T03:00:30.640Z,941.74
2018-05-29T03:01:30.629Z,941.79
2018-05-29T03:02:30.618Z,941.74
2018-05-29T03:03:30.613Z,941.77
2018-05-29T03:04:30.597Z,941.77
2018-05-29T03:05:30.587Z,941.76
2018-05-29T03:06:30.575Z,941.69
2018-05-29T03:07:30.764Z,941.70
2018-05-29T03:08:30.554Z,941.70
2018-05-29T03:09:30.543Z,941.73
2018-05-29T03:10:30.532Z,941.69
2018-05-29T03:11:30.524Z,941.73
2018-05-29T03:12:30.511Z,941.70
2018-05-29T03:13:30.503Z,941.73
2018-05-29T03:14:30.488Z,941.73
2018-05-29T03:15:30.479Z,941.73
2018-05-29T03:16:30.470Z,941.72
2018-05-29T03:17:30.459Z,941.69
2018-05-29T03:18:30.449Z,941.66
2018-05-29T03:19:30.435Z,941.67
2018-05-29T03:20:30.430Z,941.68
2018-05-29T03:21:30.414Z,941.66
2018-05-29T03:22:30.403Z,941.65
2018-05-29T03:23:30.393Z,941.69
2018-05-29T03:24:30.385Z,941.70
2018-05-29T03:25:30.377Z,941.66
2018-05-29T03:26:30.390Z,941.64
2018-05-29T03:27:30.355Z,941.63
2018-05-29T03:28:30.339Z,941.61
2018-05-29T03:29:30.329Z,941.64
2018-05-29T03:30:30.319Z,941.59
2018-05-29T03:31:30.507Z,941.61
2018-05-29T03:32:30.296Z,941.61
2018-05-29T03:33:30.285Z,941.64
2018-05-29T03:34:30.315Z,941.60
2018-05-29T03:35:30.261Z,941.54
2018-05-29T03:36:30.253Z,941.54
2018-05-29T03:37:30.241Z,941.52
2018-05-29T03:38:30.230Z,941.51
2018-05-29T03:39:30.218Z,941.47
2018-05-29T03:40:30.209Z,941.50
2018-05-29T03:41:30.198Z,941.49
2018-05-29T03:42:30.188Z,941.47
2018-05-29T03:43:30.174Z,941.50
2018-05-29T03:44:30.163Z,941.49
2018-05-29T03:45:30.154Z,941.47
2018-05-29T03:46:30.141Z,941.49
2018-05-29T03:47:30.130Z,941.50
2018-05-29T03:48:30.122Z,941.47
2018-05-29T03:49:30.110Z,941.49
2018-05-29T03:50:30.097Z,941.49
2018-05-29T03:51:30.086Z,941.51
2018-05-29T03:52:30.076Z,941.55
2018-05-29T03:53:30.066Z,941.56
2018-05-29T03:54:30.055Z,941.53
2018-05-29T03:55:30.043Z,941.53
2018-05-29T03:56:30.033Z,941.50
2018-05-29T03:57:30.021Z,941.46
2018-05-29T03:58:30.009Z,941.43
2018-05-29T03:59:29.998Z,941.42
2018-05-29T04:00:29.990Z,941.41
2018-05-29T04:01:29.978Z,941.35
2018-05-29T04:02:29.964Z,941.37
2018-05-29T04:03:29.955Z,941.38
2018-05-29T04:04:29.944Z,941.41
2018-05-29T04:05:29.933Z,941.39
2018-05-29T04:06:29.924Z,941.39
2018-05-29T04:07:29.911Z,941.40
2018-05-29T04:08:29.901Z,941.41
2018-05-29T04:09:29.889Z,941.41
2018-05-29T04:10:29.878Z,941.40
2018-05-29T04:11:29.865Z,941.36
2018-05-29T04:12:29.855Z,941.33
2018-05-29T04:13:29.852Z,941.33
2018-05-29T04:14:29.834Z,941.34
2018-05-29T04:15:29.825Z,941.33
2018-05-29T04:16:29.811Z,941.38
2018-05-29T04:17:29.802Z,941.38
2018-05-29T04:18:29.789Z,941.34
2018-05-29T04:19:29.779Z,941.31
2018-05-29T04:20:29.767Z,941.33
2018-05-29T04:21:29.757Z,941.34
2018-05-29T04:22:29.745Z,941.29
2018-05-29T04:23:29.735Z,941.25
2018-05-29T04:24:29.727Z,941.24
2018-05-29T04:25:29.714Z,941.25
2018-05-29T04:26:29.702Z,941.26
2018-05-29T04:27:29.690Z,941.24
2018-05-29T04:28:29.686Z,941.23
2018-05-29T04:29:29.669Z,941.23
2018-05-29T04:30:29.657Z,941.19
2018-05-29T04:31:29.646Z,941.23
2018-05-29T04:32:29.638Z,941.21
2018-05-29T04:33:29.628Z,941.21
2018-05-29T04:34:29.616Z,941.19
2018-05-29T04:35:29.603Z,941.16
2018-05-29T04:36:29.591Z,941.16
2018-05-29T04:37:29.583Z,941.14
2018-05-29T04:38:29.569Z,941.15
2018-05-29T04:39:29.560Z,941.21
2018-05-29T04:40:29.548Z,941.17
2018-05-29T04:41:29.540Z,941.18
2018-05-29T04:42:29.526Z,941.15
2018-05-29T04:43:29.516Z,941.18
2018-05-29T04:44:29.507Z,941.14
2018-05-29T04:45:29.495Z,941.15
2018-05-29T04:46:29.483Z,941.06
2018-05-29T04:47:29.470Z,941.10
2018-05-29T04:48:29.460Z,941.12
2018-05-29T04:49:29.450Z,941.06
2018-05-29T04:50:29.439Z,941.12
2018-05-29T04:51:29.427Z,941.06
2018-05-29T04:52:29.417Z,941.08
2018-05-29T04:53:29.405Z,941.07
2018-05-29T04:54:29.394Z,941.10
2018-05-29T04:55:29.384Z,941.06
2018-05-29T04:56:29.386Z,941.07
2018-05-29T04:57:29.365Z,941.04
2018-05-29T04:58:29.351Z,941.01
2018-05-29T04:59:29.338Z,940.97
2018-05-29T05:00:29.329Z,940.96
2018-05-29T05:01:29.318Z,940.96
2018-05-29T05:02:29.354Z,940.98
2018-05-29T05:03:29.296Z,941.00
2018-05-29T05:04:29.283Z,940.99
2018-05-29T05:05:29.273Z,940.98
2018-05-29T05:06:29.262Z,940.97
2018-05-29T05:07:29.452Z,940.99
2018-05-29T05:08:29.241Z,940.91
2018-05-29T05:09:29.229Z,940.95
2018-05-29T05:10:29.218Z,940.94
2018-05-29T05:11:29.208Z,940.92
2018-05-29T05:12:29.196Z,940.94
2018-05-29T05:13:29.184Z,940.93
2018-05-29T05:14:29.173Z,940.90
2018-05-29T05:15:29.161Z,940.93
2018-05-29T05:16:29.152Z,940.92
2018-05-29T05:17:29.140Z,940.90
2018-05-29T05:18:29.129Z,940.88
2018-05-29T05:19:29.118Z,940.90
2018-05-29T05:20:29.107Z,940.88
2018-05-29T05:21:29.097Z,940.87
2018-05-29T05:22:29.086Z,940.85
2018-05-29T05:23:29.126Z,940.84
2018-05-29T05:24:29.064Z,940.84
2018-05-29T05:25:29.053Z,940.83
2018-05-29T05:26:29.041Z,940.79
2018-05-29T05:27:29.031Z,940.82
2018-05-29T05:28:29.019Z,940.83
2018-05-29T05:29:29.008Z,940.85
2018-05-29T05:30:28.997Z,940.80
2018-05-29T05:31:28.986Z,940.85
2018-05-29T05:32:28.974Z,940.80
2018-05-29T05:33:28.966Z,940.79
2018-05-29T05:34:28.952Z,940.79
2018-05-29T05:35:28.942Z,940.79
2018-05-29T05:36:28.931Z,940.78
2018-05-29T05:37:28.921Z,940.79
2018-05-29T05:38:28.910Z,940.82
2018-05-29T05:39:28.897Z,940.79
2018-05-29T05:40:28.887Z,940.76
2018-05-29T05:41:28.877Z,940.81
2018-05-29T05:42:28.864Z,940.75
2018-05-29T05:43:28.856Z,940.84
2018-05-29T05:44:28.844Z,940.81
2018-05-29T05:45:28.832Z,940.77
2018-05-29T05:46:28.825Z,940.75
2018-05-29T05:47:28.809Z,940.79
2018-05-29T05:48:28.798Z,940.75
2018-05-29T05:49:28.788Z,940.83
2018-05-29T05:50:28.776Z,940.83
2018-05-29T05:51:28.765Z,940.79
2018-05-29T05:52:28.756Z,940.84
2018-05-29T05:53:28.745Z,940.82
2018-05-29T05:54:28.732Z,940.77
2018-05-29T05:55:28.722Z,940.85
2018-05-29T05:56:28.711Z,940.83
2018-05-29T05:57:28.699Z,940.84
2018-05-29T05:58:28.706Z,940.81
2018-05-29T05:59:28.677Z,940.77
2018-05-29T06:00:28.666Z,940.77
2018-05-29T06:01:28.656Z,940.77
2018-05-29T06:02:28.645Z,940.79
2018-05-29T06:03:28.632Z,940.73
2018-05-29T06:04:28.623Z,940.74
2018-05-29T06:05:28.612Z,940.80
2018-05-29T06:06:28.601Z,940.77
2018-05-29T06:07:28.593Z,940.77
2018-05-29T06:08:28.581Z,940.71
2018-05-29T06:09:28.566Z,940.73
2018-05-29T06:10:28.555Z,940.69
2018-05-29T06:11:28.545Z,940.77
2018-05-29T06:12:28.533Z,940.72
2018-05-29T06:13:28.723Z,940.68
2018-05-29T06:14:28.511Z,940.69
2018-05-29T06:15:28.501Z,940.72
2018-05-29T06:16:28.493Z,940.71
2018-05-29T06:17:28.479Z,940.72
2018-05-29T06:18:28.466Z,940.70
2018-05-29T06:19:28.455Z,940.69
2018-05-29T06:20:28.444Z,940.68
2018-05-29T06:21:28.434Z,940.71
2018-05-29T06:22:28.422Z,940.70
2018-05-29T06:23:28.411Z,940.68
2018-05-29T06:24:28.400Z,940.67
2018-05-29T06:25:28.389Z,940.62
2018-05-29T06:26:28.377Z,940.64
2018-05-29T06:27:28.366Z,940.60
2018-05-29T06:28:28.357Z,940.64
2018-05-29T06:29:28.344Z,940.68
2018-05-29T06:30:28.332Z,940.66
2018-05-29T06:31:28.522Z,940.67
2018-05-29T06:32:28.311Z,940.69
2018-05-29T06:33:28.302Z,940.69
2018-05-29T06:34:28.289Z,940.67
2018-05-29T06:35:28.277Z,940.65
2018-05-29T06:36:28.268Z,940.63
2018-05-29T06:37:28.411Z,940.63
2018-05-29T06:38:28.244Z,940.67
2018-05-29T06:39:28.235Z,940.64
2018-05-29T06:40:28.222Z,940.65
2018-05-29T06:41:28.212Z,940.70
2018-05-29T06:42:28.201Z,940.62
2018-05-29T06:43:28.189Z,940.64
2018-05-29T06:44:28.178Z,940.66
2018-05-29T06:45:28.167Z,940.67
2018-05-29T06:46:28.155Z,940.69
2018-05-29T06:47:28.143Z,940.66
2018-05-29T06:48:28.134Z,940.65
2018-05-29T06:49:28.322Z,940.67
2018-05-29T06:50:28.110Z,940.68
2018-05-29T06:51:28.099Z,940.73
2018-05-29T06:52:28.134Z,940.68
2018-05-29T06:53:28.076Z,940.69
2018-05-29T06:54:28.064Z,940.72
2018-05-29T06:55:28.055Z,940.68
2018-05-29T06:56:28.043Z,940.71
2018-05-29T06:57:28.033Z,940.70
2018-05-29T06:58:28.021Z,940.70
2018-05-29T06:59:28.009Z,940.73
2018-05-29T07:00:27.997Z,940.75
2018-05-29T07:01:27.989Z,940.70
2018-05-29T07:02:27.975Z,940.68
2018-05-29T07:03:27.963Z,940.69
2018-05-29T07:04:27.953Z,940.64
2018-05-29T07:05:27.941Z,940.64
2018-05-29T07:06:27.929Z,940.65
2018-05-29T07:07:28.118Z,940.59
2018-05-29T07:08:27.907Z,940.57
2018-05-29T07:09:27.895Z,940.57
2018-05-29T07:10:27.883Z,940.56
2018-05-29T07:11:27.873Z,940.53
2018-05-29T07:12:27.862Z,940.53
2018-05-29T07:13:27.850Z,940.56
2018-05-29T07:14:27.840Z,940.57
2018-05-29T07:15:27.831Z,940.57
2018-05-29T07:16:27.816Z,940.53
2018-05-29T07:17:27.807Z,940.59
2018-05-29T07:18:27.793Z,940.59
2018-05-29T07:19:27.984Z,940.56
2018-05-29T07:20:27.771Z,940.55
2018-05-29T07:21:27.759Z,940.54
2018-05-29T07:22:27.748Z,940.58
2018-05-29T07:23:27.736Z,940.58
2018-05-29T07:24:27.728Z,940.60
2018-05-29T07:25:27.715Z,940.62
2018-05-29T07:26:27.703Z,940.65
2018-05-29T07:27:27.690Z,940.64
2018-05-29T07:28:27.682Z,940.67
2018-05-29T07:29:27.669Z,940.65
2018-05-29T07:30:27.656Z,940.66
2018-05-29T07:31:27.646Z,940.64
2018-05-29T07:32:27.635Z,940.67
2018-05-29T07:33:27.623Z,940.63
2018-05-29T07:34:27.611Z,940.66
2018-05-29T07:35:27.600Z,940.62
2018-05-29T07:36:27.590Z,940.66
2018-05-29T07:37:27.582Z,940.60
2018-05-29T07:38:27.565Z,940.64
2018-05-29T07:39:27.559Z,940.61
2018-05-29T07:40:27.544Z,940.60
2018-05-29T07:41:27.533Z,940.62
2018-05-29T07:42:27.519Z,940.57
2018-05-29T07:43:27.708Z,940.62
2018-05-29T07:44:27.497Z,940.60
2018-05-29T07:45:27.487Z,940.60
2018-05-29T07:46:27.474Z,940.58
2018-05-29T07:47:27.462Z,940.60
2018-05-29T07:48:27.453Z,940.62
2018-05-29T07:49:27.441Z,940.61
2018-05-29T07:50:27.428Z,940.58
2018-05-29T07:51:27.419Z,940.62
2018-05-29T07:52:27.406Z,940.63
2018-05-29T07:53:27.396Z,940.63
2018-05-29T07:54:27.383Z,940.66
2018-05-29T07:55:27.371Z,940.64
2018-05-29T07:56:27.359Z,940.68
2018-05-29T07:57:27.348Z,940.65
2018-05-29T07:58:27.336Z,940.70
2018-05-29T07:59:27.325Z,940.71
2018-05-29T08:00:27.313Z,940.71
2018-05-29T08:01:27.305Z,940.72
2018-05-29T08:02:27.291Z,940.72
2018-05-29T08:03:27.279Z,940.69
2018-05-29T08:04:27.267Z,940.72
2018-05-29T08:05:27.256Z,940.73
2018-05-29T08:06:27.290Z,940.72
2018-05-29T08:07:27.433Z,940.70
2018-05-29T08:08:27.222Z,940.73
2018-05-29T08:09:27.214Z,940.75
2018-05-29T08:10:27.200Z,940.78
2018-05-29T08:11:27.187Z,940.75
2018-05-29T08:12:27.178Z,940.80
2018-05-29T08:13:27.166Z,940.81
2018-05-29T08:14:27.153Z,940.81
2018-05-29T08:15:27.140Z,940.83
2018-05-29T08:16:27.133Z,940.84
2018-05-29T08:17:27.120Z,940.82
2018-05-29T08:18:27.157Z,940.85
2018-05-29T08:19:27.096Z,940.89
2018-05-29T08:20:27.085Z,940.91
2018-05-29T08:21:27.072Z,940.93
2018-05-29T08:22:27.061Z,940.99
2018-05-29T08:23:27.058Z,940.96
2018-05-29T08:24:27.039Z,940.95
2018-05-29T08:25:27.027Z,940.96
2018-05-29T08:26:27.016Z,940.98
2018-05-29T08:27:27.003Z,940.98
2018-05-29T08:28:26.993Z,941.01
2018-05-29T08:29:26.998Z,941.03
2018-05-29T08:30:26.969Z,941.01
2018-05-29T08:31:27.158Z,941.02
2018-05-29T08:32:26.946Z,941.01
2018-05-29T08:33:26.935Z,940.99
2018-05-29T08:34:26.922Z,941.01
2018-05-29T08:35:26.911Z,941.04
2018-05-29T08:36:26.899Z,941.08
2018-05-29T08:37:26.892Z,941.10
2018-05-29T08:38:26.875Z,941.05
2018-05-29T08:39:26.897Z,941.08
2018-05-29T08:40:26.853Z,941.11
2018-05-29T08:41:26.842Z,941.13
2018-05-29T08:42:26.833Z,941.14
2018-05-29T08:43:26.969Z,941.18
2018-05-29T08:44:26.808Z,941.16
2018-05-29T08:45:26.795Z,941.14
2018-05-29T08:46:26.835Z,941.12
2018-05-29T08:47:26.773Z,941.09
2018-05-29T08:48:26.760Z,941.13
2018-05-29T08:49:26.750Z,941.17
2018-05-29T08:50:26.740Z,941.17
2018-05-29T08:51:26.727Z,941.20
2018-05-29T08:52:26.714Z,941.19
2018-05-29T08:53:26.703Z,941.17
2018-05-29T08:54:26.690Z,941.17
2018-05-29T08:55:26.680Z,941.19
2018-05-29T08:56:26.669Z,941.16
2018-05-29T08:57:26.713Z,941.13
2018-05-29T08:58:26.651Z,941.20
2018-05-29T08:59:26.638Z,941.21
2018-05-29T09:00:26.627Z,941.25
2018-05-29T09:01:26.609Z,941.16
2018-05-29T09:02:26.599Z,941.22
2018-05-29T09:03:26.589Z,941.25
2018-05-29T09:04:26.575Z,941.27
2018-05-29T09:05:26.564Z,941.25
2018-05-29T09:06:26.553Z,941.27
2018-05-29T09:07:26.539Z,941.29
2018-05-29T09:08:26.532Z,941.29
2018-05-29T09:09:26.518Z,941.30
2018-05-29T09:10:26.504Z,941.29
2018-05-29T09:11:26.497Z,941.33
2018-05-29T09:12:26.481Z,941.36
2018-05-29T09:13:26.471Z,941.34
2018-05-29T09:14:26.459Z,941.34
2018-05-29T09:15:26.447Z,941.35
2018-05-29T09:16:26.437Z,941.38
2018-05-29T09:17:26.430Z,941.40
2018-05-29T09:18:26.413Z,941.38
2018-05-29T09:19:26.401Z,941.40
2018-05-29T09:20:26.390Z,941.35
2018-05-29T09:21:26.380Z,941.42
2018-05-29T09:22:26.365Z,941.37
2018-05-29T09:23:26.355Z,941.45
2018-05-29T09:24:26.342Z,941.42
2018-05-29T09:25:26.331Z,941.45
2018-05-29T09:26:26.319Z,941.43
2018-05-29T09:27:26.309Z,941.49
2018-05-29T09:28:26.295Z,941.49
2018-05-29T09:29:26.286Z,941.51
2018-05-29T09:30:26.271Z,941.52
2018-05-29T09:31:26.268Z,941.52
2018-05-29T09:32:26.249Z,941.49
2018-05-29T09:33:26.237Z,941.51
2018-05-29T09:34:26.226Z,941.51
2018-05-29T09:35:26.228Z,941.53
2018-05-29T09:36:26.202Z,941.52
2018-05-29T09:37:26.231Z,941.53
2018-05-29T09:38:26.178Z,941.55
2018-05-29T09:39:26.168Z,941.57
2018-05-29T09:40:26.157Z,941.58
2018-05-29T09:41:26.156Z,941.58
2018-05-29T09:42:26.135Z,941.56
2018-05-29T09:43:26.120Z,941.59
2018-05-29T09:44:26.109Z,941.59
2018-05-29T09:45:26.097Z,941.61
2018-05-29T09:46:26.085Z,941.62
2018-05-29T09:47:26.074Z,941.60
2018-05-29T09:48:26.063Z,941.65
2018-05-29T09:49:26.053Z,941.65
2018-05-29T09:50:26.039Z,941.67
2018-05-29T09:51:26.029Z,941.68
2018-05-29T09:52:26.018Z,941.62
2018-05-29T09:53:26.006Z,941.66
2018-05-29T09:54:26.022Z,941.71
2018-05-29T09:55:25.981Z,941.72
2018-05-29T09:56:25.970Z,941.68
2018-05-29T09:57:25.959Z,941.66
2018-05-29T09:58:25.946Z,941.69
2018-05-29T09:59:25.937Z,941.66
2018-05-29T10:00:25.923Z,941.70
2018-05-29T10:01:25.914Z,941.72
2018-05-29T10:02:25.900Z,941.71
2018-05-29T10:03:25.894Z,941.72
2018-05-29T10:04:25.879Z,941.75
2018-05-29T10:05:25.865Z,941.71
2018-05-29T10:06:25.855Z,941.78
2018-05-29T10:07:25.844Z,941.79
2018-05-29T10:08:25.834Z,941.80
2018-05-29T10:09:25.819Z,941.80
2018-05-29T10:10:25.807Z,941.78
2018-05-29T10:11:25.797Z,941.75
2018-05-29T10:12:25.787Z,941.73
2018-05-29T10:13:25.773Z,941.76
2018-05-29T10:14:25.761Z,941.74
2018-05-29T10:15:25.750Z,941.74
2018-05-29T10:16:25.740Z,941.75
2018-05-29T10:17:25.728Z,941.77
2018-05-29T10:18:25.717Z,941.73
2018-05-29T10:19:25.763Z,941.74
2018-05-29T10:20:25.695Z,941.78
2018-05-29T10:21:25.709Z,941.77
2018-05-29T10:22:25.670Z,941.79
2018-05-29T10:23:25.694Z,941.80
2018-05-29T10:24:25.646Z,941.82
2018-05-29T10:25:25.639Z,941.82
2018-05-29T10:26:25.624Z,941.83
2018-05-29T10:27:25.616Z,941.86
2018-05-29T10:28:25.600Z,941.87
2018-05-29T10:29:25.612Z,941.88
2018-05-29T10:30:25.577Z,941.88
2018-05-29T10:31:25.565Z,941.88
2018-05-29T10:32:25.555Z,941.87
2018-05-29T10:33:25.544Z,941.90
2018-05-29T10:34:25.532Z,941.87
2018-05-29T10:35:25.519Z,941.91
2018-05-29T10:36:25.511Z,941.93
2018-05-29T10:37:25.501Z,941.93
2018-05-29T10:38:25.486Z,941.94
2018-05-29T10:39:25.475Z,941.91
2018-05-29T10:40:25.464Z,941.95
2018-05-29T10:41:25.451Z,941.96
2018-05-29T10:42:25.439Z,942.00
2018-05-29T10:43:25.428Z,942.03
2018-05-29T10:44:25.417Z,941.99
2018-05-29T10:45:25.405Z,942.04
2018-05-29T10:46:25.393Z,942.01
2018-05-29T10:47:25.382Z,942.07
2018-05-29T10:48:25.372Z,942.06
2018-05-29T10:49:25.359Z,942.03
2018-05-29T10:50:25.349Z,942.06
2018-05-29T10:51:25.338Z,942.09
2018-05-29T10:52:25.353Z,942.12
2018-05-29T10:53:25.320Z,942.11
2018-05-29T10:54:25.304Z,942.15
2018-05-29T10:55:25.290Z,942.13
2018-05-29T10:56:25.279Z,942.14
2018-05-29T10:57:25.267Z,942.15
2018-05-29T10:58:25.256Z,942.16
2018-05-29T10:59:25.267Z,942.18
2018-05-29T11:00:25.234Z,942.20
2018-05-29T11:01:25.222Z,942.23
2018-05-29T11:02:25.212Z,942.23
2018-05-29T11:03:25.200Z,942.22
2018-05-29T11:04:25.189Z,942.26
2018-05-29T11:05:25.178Z,942.21
2018-05-29T11:06:25.166Z,942.22
2018-05-29T11:07:25.154Z,942.22
2018-05-29T11:08:25.144Z,942.25
2018-05-29T11:09:25.133Z,942.27
2018-05-29T11:10:25.121Z,942.22
2018-05-29T11:11:25.108Z,942.27
2018-05-29T11:12:25.100Z,942.33
2018-05-29T11:13:25.090Z,942.29
2018-05-29T11:14:25.075Z,942.32
2018-05-29T11:15:25.065Z,942.30
2018-05-29T11:16:25.052Z,942.31
2018-05-29T11:17:25.040Z,942.28
2018-05-29T11:18:25.030Z,942.34
2018-05-29T11:19:25.048Z,942.37
2018-05-29T11:20:25.006Z,942.36
2018-05-29T11:21:24.995Z,942.44
2018-05-29T11:22:24.986Z,942.41
2018-05-29T11:23:24.972Z,942.43
2018-05-29T11:24:24.962Z,942.41
2018-05-29T11:25:24.952Z,942.44
2018-05-29T11:26:24.940Z,942.46
2018-05-29T11:27:24.927Z,942.45
2018-05-29T11:28:24.918Z,942.43
2018-05-29T11:29:24.908Z,942.47
2018-05-29T11:30:24.895Z,942.49
2018-05-29T11:31:24.884Z,942.45
2018-05-29T11:32:24.874Z,942.51
2018-05-29T11:33:24.864Z,942.51
2018-05-29T11:34:24.851Z,942.54
2018-05-29T11:35:24.841Z,942.55
2018-05-29T11:36:24.832Z,942.54
2018-05-29T11:37:24.822Z,942.58
2018-05-29T11:38:24.810Z,942.58
2018-05-29T11:39:24.799Z,942.60
2018-05-29T11:40:24.789Z,942.62
2018-05-29T11:41:24.780Z,942.64
2018-05-29T11:42:24.818Z,942.65
2018-05-29T11:43:24.826Z,942.69
2018-05-29T11:44:24.749Z,942.69
2018-05-29T11:45:24.740Z,942.73
2018-05-29T11:46:24.730Z,942.79
2018-05-29T11:47:24.722Z,942.84
2018-05-29T11:48:24.711Z,942.81
2018-05-29T11:49:24.703Z,942.77
2018-05-29T11:50:24.692Z,942.81
2018-05-29T11:51:24.683Z,942.81
2018-05-29T11:52:24.673Z,942.80
2018-05-29T11:53:24.817Z,942.86
2018-05-29T11:54:24.655Z,942.89
2018-05-29T11:55:24.645Z,942.90
2018-05-29T11:56:24.638Z,942.90
2018-05-29T11:57:24.629Z,942.88
2018-05-29T11:58:24.620Z,942.89
2018-05-29T11:59:24.610Z,942.90
2018-05-29T12:00:24.604Z,942.95
2018-05-29T12:01:24.594Z,942.94
2018-05-29T12:02:24.585Z,942.90
2018-05-29T12:03:24.576Z,942.94
2018-05-29T12:04:24.567Z,942.93
2018-05-29T12:05:24.559Z,942.96
2018-05-29T12:06:24.550Z,942.93
2018-05-29T12:07:24.542Z,942.96
2018-05-29T12:08:24.534Z,942.99
2018-05-29T12:09:24.527Z,943.02
2018-05-29T12:10:24.565Z,943.02
2018-05-29T12:11:24.509Z,943.05
2018-05-29T12:12:24.501Z,943.03
2018-05-29T12:13:24.493Z,943.06
2018-05-29T12:14:24.484Z,943.08
2018-05-29T12:15:24.477Z,943.09
2018-05-29T12:16:24.470Z,943.13
2018-05-29T12:17:24.461Z,943.13
2018-05-29T12:18:24.452Z,943.14
2018-05-29T12:19:24.444Z,943.16
2018-05-29T12:20:24.437Z,943.20
2018-05-29T12:21:24.431Z,943.17
2018-05-29T12:22:24.454Z,943.15
2018-05-29T12:23:24.414Z,943.17
2018-05-29T12:24:24.407Z,943.18
2018-05-29T12:25:24.399Z,943.19
2018-05-29T12:26:24.396Z,943.21
2018-05-29T12:27:24.383Z,943.20
2018-05-29T12:28:24.377Z,943.20